Terminal Aerodrome Forecast
Issued by NWS

Home | Current Version | Previous Version | Graphics & Text | Print | Product List | Glossary On
Versions: 1 2 3 4 5 6 7 8 9 10 11 12 13 14
551
FTUS43 KUNR 222333
TAFGCC
TAF
KGCC 222333Z 2300/2324 06011KT P6SM SCT150
     FM230200 21012KT P6SM SCT150
     FM231000 30017G27KT P6SM SCT200=

USA.gov is the U.S. government's official web portal to all federal, state and local government web resources and services.